sensor_id;sensor_type;location;lat;lon;timestamp;P1;durP1;ratioP1;P2;durP2;ratioP2
67500;SDS011;54349;52.528;19.760;2022-10-22T00:01:10;7.80;;;5.20;;
67500;SDS011;54349;52.528;19.760;2022-10-22T00:03:40;8.80;;;5.00;;
67500;SDS011;54349;52.528;19.760;2022-10-22T00:06:08;7.60;;;4.90;;
67500;SDS011;54349;52.528;19.760;2022-10-22T00:08:36;7.80;;;4.90;;
67500;SDS011;54349;52.528;19.760;2022-10-22T00:11:22;7.60;;;4.50;;
67500;SDS011;54349;52.528;19.760;2022-10-22T00:13:51;6.90;;;4.60;;
67500;SDS011;54349;52.528;19.760;2022-10-22T00:16:19;7.20;;;4.60;;
67500;SDS011;54349;52.528;19.760;2022-10-22T00:18:47;6.60;;;4.70;;
67500;SDS011;54349;52.528;19.760;2022-10-22T00:21:15;7.70;;;4.90;;
67500;SDS011;54349;52.528;19.760;2022-10-22T00:23:43;7.80;;;5.00;;
67500;SDS011;54349;52.528;19.760;2022-10-22T00:26:11;7.40;;;5.00;;
67500;SDS011;54349;52.528;19.760;2022-10-22T00:28:39;6.70;;;4.60;;
67500;SDS011;54349;52.528;19.760;2022-10-22T00:31:08;8.20;;;4.80;;
67500;SDS011;54349;52.528;19.760;2022-10-22T00:33:36;7.40;;;4.90;;
67500;SDS011;54349;52.528;19.760;2022-10-22T00:36:05;8.50;;;5.30;;
67500;SDS011;54349;52.528;19.760;2022-10-22T00:38:33;7.00;;;4.90;;
67500;SDS011;54349;52.528;19.760;2022-10-22T00:41:01;7.00;;;4.90;;
67500;SDS011;54349;52.528;19.760;2022-10-22T00:43:29;8.00;;;5.40;;
67500;SDS011;54349;52.528;19.760;2022-10-22T00:45:57;7.60;;;5.00;;
67500;SDS011;54349;52.528;19.760;2022-10-22T00:48:27;8.20;;;5.20;;
67500;SDS011;54349;52.528;19.760;2022-10-22T00:51:03;7.80;;;5.10;;
67500;SDS011;54349;52.528;19.760;2022-10-22T00:53:41;7.40;;;4.80;;
67500;SDS011;54349;52.528;19.760;2022-10-22T00:56:16;7.30;;;4.90;;
67500;SDS011;54349;52.528;19.760;2022-10-22T00:58:47;7.30;;;4.70;;
67500;SDS011;54349;52.528;19.760;2022-10-22T01:01:27;7.20;;;4.70;;
67500;SDS011;54349;52.528;19.760;2022-10-22T01:03:57;7.90;;;5.00;;
67500;SDS011;54349;52.528;19.760;2022-10-22T01:06:31;8.30;;;5.20;;
67500;SDS011;54349;52.528;19.760;2022-10-22T01:12:35;7.60;;;5.20;;
67500;SDS011;54349;52.528;19.760;2022-10-22T01:15:36;6.70;;;4.90;;
67500;SDS011;54349;52.528;19.760;2022-10-22T01:21:32;8.50;;;5.10;;
67500;SDS011;54349;52.528;19.760;2022-10-22T01:24:19;7.60;;;4.90;;
67500;SDS011;54349;52.528;19.760;2022-10-22T01:29:48;9.00;;;5.20;;
67500;SDS011;54349;52.528;19.760;2022-10-22T01:32:22;8.10;;;5.10;;
67500;SDS011;54349;52.528;19.760;2022-10-22T01:35:05;8.50;;;5.30;;
67500;SDS011;54349;52.528;19.760;2022-10-22T01:37:46;7.90;;;5.10;;
67500;SDS011;54349;52.528;19.760;2022-10-22T01:40:18;8.50;;;5.20;;
67500;SDS011;54349;52.528;19.760;2022-10-22T01:43:13;8.60;;;5.10;;
67500;SDS011;54349;52.528;19.760;2022-10-22T01:45:44;7.60;;;5.30;;
67500;SDS011;54349;52.528;19.760;2022-10-22T01:57:20;7.50;;;4.80;;
67500;SDS011;54349;52.528;19.760;2022-10-22T02:00:03;7.30;;;5.00;;
67500;SDS011;54349;52.528;19.760;2022-10-22T02:02:46;8.00;;;4.90;;
67500;SDS011;54349;52.528;19.760;2022-10-22T02:05:57;8.10;;;5.20;;
67500;SDS011;54349;52.528;19.760;2022-10-22T02:08:31;8.30;;;5.70;;
67500;SDS011;54349;52.528;19.760;2022-10-22T02:11:02;8.30;;;5.00;;
67500;SDS011;54349;52.528;19.760;2022-10-22T02:13:35;7.70;;;5.00;;
67500;SDS011;54349;52.528;19.760;2022-10-22T02:16:31;8.30;;;5.50;;
67500;SDS011;54349;52.528;19.760;2022-10-22T02:19:09;8.10;;;4.90;;
67500;SDS011;54349;52.528;19.760;2022-10-22T02:21:49;7.80;;;5.00;;
67500;SDS011;54349;52.528;19.760;2022-10-22T02:24:19;8.00;;;5.50;;
67500;SDS011;54349;52.528;19.760;2022-10-22T02:27:17;7.30;;;4.80;;
67500;SDS011;54349;52.528;19.760;2022-10-22T02:30:16;7.10;;;4.80;;
67500;SDS011;54349;52.528;19.760;2022-10-22T02:33:02;7.70;;;5.00;;
67500;SDS011;54349;52.528;19.760;2022-10-22T02:36:00;7.70;;;4.80;;
67500;SDS011;54349;52.528;19.760;2022-10-22T02:38:30;7.60;;;5.00;;
67500;SDS011;54349;52.528;19.760;2022-10-22T02:41:01;7.10;;;4.80;;
67500;SDS011;54349;52.528;19.760;2022-10-22T02:43:30;7.60;;;5.10;;
67500;SDS011;54349;52.528;19.760;2022-10-22T02:46:10;8.40;;;5.00;;
67500;SDS011;54349;52.528;19.760;2022-10-22T02:48:38;7.90;;;5.10;;
67500;SDS011;54349;52.528;19.760;2022-10-22T02:51:06;7.70;;;5.00;;
67500;SDS011;54349;52.528;19.760;2022-10-22T02:53:34;7.90;;;5.00;;
67500;SDS011;54349;52.528;19.760;2022-10-22T02:56:03;6.60;;;4.70;;
67500;SDS011;54349;52.528;19.760;2022-10-22T02:58:31;8.10;;;5.20;;
67500;SDS011;54349;52.528;19.760;2022-10-22T03:00:59;7.30;;;4.90;;
67500;SDS011;54349;52.528;19.760;2022-10-22T03:03:27;9.10;;;5.40;;
67500;SDS011;54349;52.528;19.760;2022-10-22T03:05:55;7.10;;;4.80;;
67500;SDS011;54349;52.528;19.760;2022-10-22T03:08:23;7.00;;;4.70;;
67500;SDS011;54349;52.528;19.760;2022-10-22T03:10:52;8.30;;;5.20;;
67500;SDS011;54349;52.528;19.760;2022-10-22T03:13:19;8.30;;;5.10;;
67500;SDS011;54349;52.528;19.760;2022-10-22T03:15:49;6.90;;;4.70;;
67500;SDS011;54349;52.528;19.760;2022-10-22T03:18:17;7.00;;;4.70;;
67500;SDS011;54349;52.528;19.760;2022-10-22T03:20:45;7.30;;;4.80;;
67500;SDS011;54349;52.528;19.760;2022-10-22T03:23:17;8.20;;;4.90;;
67500;SDS011;54349;52.528;19.760;2022-10-22T03:25:47;7.00;;;4.60;;
67500;SDS011;54349;52.528;19.760;2022-10-22T03:28:17;7.10;;;5.00;;
67500;SDS011;54349;52.528;19.760;2022-10-22T03:30:45;8.00;;;5.10;;
67500;SDS011;54349;52.528;19.760;2022-10-22T03:33:13;7.30;;;4.80;;
67500;SDS011;54349;52.528;19.760;2022-10-22T03:35:43;7.50;;;4.90;;
67500;SDS011;54349;52.528;19.760;2022-10-22T03:38:14;7.20;;;4.70;;
67500;SDS011;54349;52.528;19.760;2022-10-22T03:40:43;8.20;;;4.90;;
67500;SDS011;54349;52.528;19.760;2022-10-22T03:43:12;7.50;;;4.80;;
67500;SDS011;54349;52.528;19.760;2022-10-22T03:45:41;7.40;;;4.60;;
67500;SDS011;54349;52.528;19.760;2022-10-22T03:48:09;6.80;;;4.50;;
67500;SDS011;54349;52.528;19.760;2022-10-22T03:50:37;6.30;;;4.40;;
67500;SDS011;54349;52.528;19.760;2022-10-22T03:53:05;7.00;;;4.70;;
67500;SDS011;54349;52.528;19.760;2022-10-22T03:55:35;7.30;;;5.00;;
67500;SDS011;54349;52.528;19.760;2022-10-22T03:58:04;7.10;;;4.60;;
67500;SDS011;54349;52.528;19.760;2022-10-22T04:00:34;7.10;;;4.50;;
67500;SDS011;54349;52.528;19.760;2022-10-22T04:03:03;6.70;;;4.50;;
67500;SDS011;54349;52.528;19.760;2022-10-22T04:05:32;7.00;;;4.40;;
67500;SDS011;54349;52.528;19.760;2022-10-22T04:08:00;6.90;;;4.60;;
67500;SDS011;54349;52.528;19.760;2022-10-22T04:10:29;6.80;;;4.70;;
67500;SDS011;54349;52.528;19.760;2022-10-22T04:12:56;6.80;;;4.50;;
67500;SDS011;54349;52.528;19.760;2022-10-22T04:15:24;6.90;;;4.40;;
67500;SDS011;54349;52.528;19.760;2022-10-22T04:17:54;6.90;;;4.80;;
67500;SDS011;54349;52.528;19.760;2022-10-22T04:20:22;7.90;;;4.30;;
67500;SDS011;54349;52.528;19.760;2022-10-22T04:22:50;6.80;;;4.50;;
67500;SDS011;54349;52.528;19.760;2022-10-22T04:25:19;6.30;;;4.40;;
67500;SDS011;54349;52.528;19.760;2022-10-22T04:27:46;7.70;;;4.50;;
67500;SDS011;54349;52.528;19.760;2022-10-22T04:30:14;6.50;;;4.30;;
67500;SDS011;54349;52.528;19.760;2022-10-22T04:32:43;6.50;;;4.40;;
67500;SDS011;54349;52.528;19.760;2022-10-22T04:35:11;6.60;;;4.40;;
67500;SDS011;54349;52.528;19.760;2022-10-22T04:37:38;6.80;;;4.60;;
67500;SDS011;54349;52.528;19.760;2022-10-22T04:40:07;6.30;;;4.20;;
67500;SDS011;54349;52.528;19.760;2022-10-22T04:42:36;6.20;;;4.40;;
67500;SDS011;54349;52.528;19.760;2022-10-22T04:45:04;6.60;;;4.10;;
67500;SDS011;54349;52.528;19.760;2022-10-22T04:47:33;6.80;;;4.20;;
67500;SDS011;54349;52.528;19.760;2022-10-22T04:50:01;6.80;;;4.30;;
67500;SDS011;54349;52.528;19.760;2022-10-22T04:52:30;6.00;;;4.00;;
67500;SDS011;54349;52.528;19.760;2022-10-22T04:54:58;6.30;;;4.30;;
67500;SDS011;54349;52.528;19.760;2022-10-22T04:57:30;7.40;;;4.40;;
67500;SDS011;54349;52.528;19.760;2022-10-22T04:59:58;6.30;;;3.90;;
67500;SDS011;54349;52.528;19.760;2022-10-22T05:02:26;6.00;;;4.10;;
67500;SDS011;54349;52.528;19.760;2022-10-22T05:04:54;6.40;;;4.10;;
67500;SDS011;54349;52.528;19.760;2022-10-22T05:07:22;5.90;;;4.10;;
67500;SDS011;54349;52.528;19.760;2022-10-22T05:09:52;7.40;;;4.10;;
67500;SDS011;54349;52.528;19.760;2022-10-22T05:12:20;6.70;;;4.00;;
67500;SDS011;54349;52.528;19.760;2022-10-22T05:14:48;7.00;;;3.90;;
67500;SDS011;54349;52.528;19.760;2022-10-22T05:17:16;5.80;;;4.10;;
67500;SDS011;54349;52.528;19.760;2022-10-22T05:19:44;6.20;;;4.10;;
67500;SDS011;54349;52.528;19.760;2022-10-22T05:22:12;6.50;;;4.00;;
67500;SDS011;54349;52.528;19.760;2022-10-22T05:24:40;6.10;;;4.00;;
67500;SDS011;54349;52.528;19.760;2022-10-22T05:27:08;6.60;;;4.30;;
67500;SDS011;54349;52.528;19.760;2022-10-22T05:29:36;5.60;;;3.60;;
67500;SDS011;54349;52.528;19.760;2022-10-22T05:32:04;6.00;;;3.90;;
67500;SDS011;54349;52.528;19.760;2022-10-22T05:34:32;6.00;;;4.00;;
67500;SDS011;54349;52.528;19.760;2022-10-22T05:37:02;6.20;;;3.90;;
67500;SDS011;54349;52.528;19.760;2022-10-22T05:39:30;6.00;;;4.10;;
67500;SDS011;54349;52.528;19.760;2022-10-22T05:41:58;6.10;;;3.90;;
67500;SDS011;54349;52.528;19.760;2022-10-22T05:44:26;5.70;;;4.00;;
67500;SDS011;54349;52.528;19.760;2022-10-22T05:46:54;6.10;;;4.00;;
67500;SDS011;54349;52.528;19.760;2022-10-22T05:49:22;5.80;;;4.00;;
67500;SDS011;54349;52.528;19.760;2022-10-22T05:51:50;6.60;;;4.00;;
67500;SDS011;54349;52.528;19.760;2022-10-22T05:54:19;6.20;;;4.10;;
67500;SDS011;54349;52.528;19.760;2022-10-22T05:56:49;6.00;;;4.10;;
67500;SDS011;54349;52.528;19.760;2022-10-22T05:59:17;7.00;;;4.20;;
67500;SDS011;54349;52.528;19.760;2022-10-22T06:01:45;6.90;;;4.40;;
67500;SDS011;54349;52.528;19.760;2022-10-22T06:04:13;6.40;;;4.50;;
67500;SDS011;54349;52.528;19.760;2022-10-22T06:06:44;6.40;;;4.40;;
67500;SDS011;54349;52.528;19.760;2022-10-22T06:09:35;6.90;;;4.00;;
67500;SDS011;54349;52.528;19.760;2022-10-22T06:12:08;6.40;;;4.20;;
67500;SDS011;54349;52.528;19.760;2022-10-22T06:14:39;6.50;;;4.10;;
67500;SDS011;54349;52.528;19.760;2022-10-22T06:17:08;6.40;;;4.10;;
67500;SDS011;54349;52.528;19.760;2022-10-22T06:19:36;6.20;;;3.80;;
67500;SDS011;54349;52.528;19.760;2022-10-22T06:22:04;7.00;;;3.90;;
67500;SDS011;54349;52.528;19.760;2022-10-22T06:24:32;5.50;;;4.10;;
67500;SDS011;54349;52.528;19.760;2022-10-22T06:27:00;7.10;;;4.40;;
67500;SDS011;54349;52.528;19.760;2022-10-22T06:29:28;6.60;;;4.10;;
67500;SDS011;54349;52.528;19.760;2022-10-22T06:31:56;6.40;;;3.90;;
67500;SDS011;54349;52.528;19.760;2022-10-22T06:34:24;6.40;;;4.40;;
67500;SDS011;54349;52.528;19.760;2022-10-22T06:36:52;6.10;;;4.10;;
67500;SDS011;54349;52.528;19.760;2022-10-22T06:39:20;5.90;;;3.90;;
67500;SDS011;54349;52.528;19.760;2022-10-22T06:41:48;6.20;;;4.10;;
67500;SDS011;54349;52.528;19.760;2022-10-22T06:44:18;6.70;;;4.40;;
67500;SDS011;54349;52.528;19.760;2022-10-22T06:46:50;6.30;;;3.70;;
67500;SDS011;54349;52.528;19.760;2022-10-22T06:49:20;7.40;;;4.20;;
67500;SDS011;54349;52.528;19.760;2022-10-22T06:51:52;6.50;;;4.50;;
67500;SDS011;54349;52.528;19.760;2022-10-22T06:54:22;5.60;;;4.00;;
67500;SDS011;54349;52.528;19.760;2022-10-22T06:56:50;6.90;;;4.30;;
67500;SDS011;54349;52.528;19.760;2022-10-22T06:59:18;8.90;;;4.20;;
67500;SDS011;54349;52.528;19.760;2022-10-22T07:01:46;15.50;;;4.80;;
67500;SDS011;54349;52.528;19.760;2022-10-22T07:04:14;14.30;;;5.00;;
67500;SDS011;54349;52.528;19.760;2022-10-22T07:06:43;11.90;;;4.60;;
67500;SDS011;54349;52.528;19.760;2022-10-22T07:09:11;9.30;;;4.30;;
67500;SDS011;54349;52.528;19.760;2022-10-22T07:11:41;9.50;;;4.40;;
67500;SDS011;54349;52.528;19.760;2022-10-22T07:14:12;12.00;;;5.00;;
67500;SDS011;54349;52.528;19.760;2022-10-22T07:16:41;9.90;;;4.90;;
67500;SDS011;54349;52.528;19.760;2022-10-22T07:19:10;10.60;;;4.90;;
67500;SDS011;54349;52.528;19.760;2022-10-22T07:21:39;8.10;;;4.90;;
67500;SDS011;54349;52.528;19.760;2022-10-22T07:24:07;10.30;;;5.10;;
67500;SDS011;54349;52.528;19.760;2022-10-22T07:26:35;10.70;;;5.20;;
67500;SDS011;54349;52.528;19.760;2022-10-22T07:29:04;12.40;;;5.20;;
67500;SDS011;54349;52.528;19.760;2022-10-22T07:31:32;11.00;;;5.20;;
67500;SDS011;54349;52.528;19.760;2022-10-22T07:34:01;11.10;;;5.20;;
67500;SDS011;54349;52.528;19.760;2022-10-22T07:36:29;8.80;;;5.60;;
67500;SDS011;54349;52.528;19.760;2022-10-22T07:38:58;13.00;;;6.00;;
67500;SDS011;54349;52.528;19.760;2022-10-22T07:41:28;13.50;;;6.40;;
67500;SDS011;54349;52.528;19.760;2022-10-22T07:43:57;13.40;;;6.60;;
67500;SDS011;54349;52.528;19.760;2022-10-22T07:46:26;13.80;;;7.00;;
67500;SDS011;54349;52.528;19.760;2022-10-22T07:48:54;14.60;;;7.00;;
67500;SDS011;54349;52.528;19.760;2022-10-22T07:51:23;17.10;;;7.10;;
67500;SDS011;54349;52.528;19.760;2022-10-22T07:53:51;13.50;;;7.20;;
67500;SDS011;54349;52.528;19.760;2022-10-22T07:56:19;16.00;;;7.60;;
67500;SDS011;54349;52.528;19.760;2022-10-22T07:58:48;17.40;;;8.50;;
67500;SDS011;54349;52.528;19.760;2022-10-22T08:01:16;18.90;;;8.70;;
67500;SDS011;54349;52.528;19.760;2022-10-22T08:03:44;18.30;;;8.00;;
67500;SDS011;54349;52.528;19.760;2022-10-22T08:06:12;22.10;;;8.80;;
67500;SDS011;54349;52.528;19.760;2022-10-22T08:08:43;20.20;;;9.10;;
67500;SDS011;54349;52.528;19.760;2022-10-22T08:11:16;19.50;;;8.40;;
67500;SDS011;54349;52.528;19.760;2022-10-22T08:13:43;16.80;;;8.70;;
67500;SDS011;54349;52.528;19.760;2022-10-22T08:16:13;16.70;;;8.10;;
67500;SDS011;54349;52.528;19.760;2022-10-22T08:18:41;19.20;;;8.90;;
67500;SDS011;54349;52.528;19.760;2022-10-22T08:21:11;14.90;;;8.00;;
67500;SDS011;54349;52.528;19.760;2022-10-22T08:23:39;16.00;;;8.00;;
67500;SDS011;54349;52.528;19.760;2022-10-22T08:26:08;15.70;;;7.90;;
67500;SDS011;54349;52.528;19.760;2022-10-22T08:28:37;16.00;;;8.00;;
67500;SDS011;54349;52.528;19.760;2022-10-22T08:31:06;14.90;;;8.10;;
67500;SDS011;54349;52.528;19.760;2022-10-22T08:33:36;13.60;;;8.00;;
67500;SDS011;54349;52.528;19.760;2022-10-22T08:36:06;13.90;;;7.80;;
67500;SDS011;54349;52.528;19.760;2022-10-22T08:38:34;15.40;;;7.70;;
67500;SDS011;54349;52.528;19.760;2022-10-22T08:41:15;14.90;;;7.80;;
67500;SDS011;54349;52.528;19.760;2022-10-22T08:49:20;17.30;;;7.90;;
67500;SDS011;54349;52.528;19.760;2022-10-22T08:51:51;16.30;;;8.00;;
67500;SDS011;54349;52.528;19.760;2022-10-22T09:00:24;16.70;;;8.70;;
67500;SDS011;54349;52.528;19.760;2022-10-22T09:08:39;16.30;;;8.70;;
67500;SDS011;54349;52.528;19.760;2022-10-22T09:13:45;21.20;;;10.50;;
67500;SDS011;54349;52.528;19.760;2022-10-22T09:16:24;20.90;;;10.60;;
67500;SDS011;54349;52.528;19.760;2022-10-22T09:25:34;23.00;;;10.20;;
67500;SDS011;54349;52.528;19.760;2022-10-22T09:27:42;20.40;;;10.20;;
67500;SDS011;54349;52.528;19.760;2022-10-22T09:30:19;18.50;;;9.40;;
67500;SDS011;54349;52.528;19.760;2022-10-22T09:33:11;22.40;;;9.90;;
67500;SDS011;54349;52.528;19.760;2022-10-22T09:35:52;24.70;;;11.00;;
67500;SDS011;54349;52.528;19.760;2022-10-22T09:38:31;23.00;;;10.60;;
67500;SDS011;54349;52.528;19.760;2022-10-22T09:41:22;21.90;;;11.10;;
67500;SDS011;54349;52.528;19.760;2022-10-22T09:43:52;23.90;;;11.00;;
67500;SDS011;54349;52.528;19.760;2022-10-22T09:46:23;24.20;;;10.90;;
67500;SDS011;54349;52.528;19.760;2022-10-22T09:51:49;23.70;;;11.40;;
67500;SDS011;54349;52.528;19.760;2022-10-22T09:59:46;22.40;;;10.30;;
67500;SDS011;54349;52.528;19.760;2022-10-22T10:02:19;19.50;;;10.60;;
67500;SDS011;54349;52.528;19.760;2022-10-22T10:05:06;20.00;;;10.20;;
67500;SDS011;54349;52.528;19.760;2022-10-22T10:07:36;22.00;;;10.20;;
67500;SDS011;54349;52.528;19.760;2022-10-22T10:10:30;20.80;;;10.20;;
67500;SDS011;54349;52.528;19.760;2022-10-22T10:13:17;20.00;;;9.20;;
67500;SDS011;54349;52.528;19.760;2022-10-22T10:22:34;16.30;;;9.10;;
67500;SDS011;54349;52.528;19.760;2022-10-22T10:28:18;16.40;;;9.50;;
67500;SDS011;54349;52.528;19.760;2022-10-22T10:31:16;16.40;;;9.00;;
67500;SDS011;54349;52.528;19.760;2022-10-22T10:36:53;19.00;;;9.00;;
67500;SDS011;54349;52.528;19.760;2022-10-22T10:46:21;15.30;;;8.80;;
67500;SDS011;54349;52.528;19.760;2022-10-22T10:49:22;16.90;;;8.30;;
67500;SDS011;54349;52.528;19.760;2022-10-22T11:07:18;17.20;;;8.80;;
67500;SDS011;54349;52.528;19.760;2022-10-22T11:10:09;15.20;;;8.70;;
67500;SDS011;54349;52.528;19.760;2022-10-22T11:12:52;14.60;;;8.60;;
67500;SDS011;54349;52.528;19.760;2022-10-22T11:15:35;14.90;;;8.90;;
67500;SDS011;54349;52.528;19.760;2022-10-22T11:18:36;14.10;;;8.50;;
67500;SDS011;54349;52.528;19.760;2022-10-22T11:26:47;14.90;;;8.70;;
67500;SDS011;54349;52.528;19.760;2022-10-22T11:29:27;13.80;;;8.10;;
67500;SDS011;54349;52.528;19.760;2022-10-22T11:32:01;15.50;;;8.10;;
67500;SDS011;54349;52.528;19.760;2022-10-22T11:34:35;13.90;;;7.90;;
67500;SDS011;54349;52.528;19.760;2022-10-22T11:37:09;14.90;;;8.50;;
67500;SDS011;54349;52.528;19.760;2022-10-22T11:42:18;14.80;;;8.10;;
67500;SDS011;54349;52.528;19.760;2022-10-22T11:45:01;12.60;;;7.60;;
67500;SDS011;54349;52.528;19.760;2022-10-22T11:48:18;16.00;;;8.30;;
67500;SDS011;54349;52.528;19.760;2022-10-22T11:53:31;13.00;;;7.70;;
67500;SDS011;54349;52.528;19.760;2022-10-22T12:08:51;13.70;;;7.90;;
67500;SDS011;54349;52.528;19.760;2022-10-22T12:11:51;13.30;;;7.70;;
67500;SDS011;54349;52.528;19.760;2022-10-22T12:14:31;15.20;;;7.20;;
67500;SDS011;54349;52.528;19.760;2022-10-22T12:17:09;14.60;;;8.20;;
67500;SDS011;54349;52.528;19.760;2022-10-22T12:19:45;11.90;;;7.50;;
67500;SDS011;54349;52.528;19.760;2022-10-22T12:22:21;13.00;;;7.20;;
67500;SDS011;54349;52.528;19.760;2022-10-22T12:24:54;13.20;;;7.50;;
67500;SDS011;54349;52.528;19.760;2022-10-22T12:27:33;13.10;;;7.30;;
67500;SDS011;54349;52.528;19.760;2022-10-22T12:30:33;10.10;;;6.90;;
67500;SDS011;54349;52.528;19.760;2022-10-22T12:33:04;13.30;;;7.20;;
67500;SDS011;54349;52.528;19.760;2022-10-22T12:35:42;15.50;;;8.20;;
67500;SDS011;54349;52.528;19.760;2022-10-22T12:38:15;12.10;;;7.30;;
67500;SDS011;54349;52.528;19.760;2022-10-22T12:40:48;14.60;;;8.30;;
67500;SDS011;54349;52.528;19.760;2022-10-22T12:43:23;13.60;;;7.60;;
67500;SDS011;54349;52.528;19.760;2022-10-22T12:45:54;15.10;;;7.60;;
67500;SDS011;54349;52.528;19.760;2022-10-22T12:48:28;14.30;;;7.80;;
67500;SDS011;54349;52.528;19.760;2022-10-22T12:51:03;16.50;;;8.70;;
67500;SDS011;54349;52.528;19.760;2022-10-22T12:53:38;13.10;;;7.70;;
67500;SDS011;54349;52.528;19.760;2022-10-22T12:56:15;13.50;;;7.60;;
67500;SDS011;54349;52.528;19.760;2022-10-22T12:58:54;12.60;;;7.80;;
67500;SDS011;54349;52.528;19.760;2022-10-22T13:01:27;14.10;;;7.90;;
67500;SDS011;54349;52.528;19.760;2022-10-22T13:12:35;13.50;;;8.00;;
67500;SDS011;54349;52.528;19.760;2022-10-22T13:15:37;11.30;;;7.30;;
67500;SDS011;54349;52.528;19.760;2022-10-22T13:20:54;12.30;;;7.20;;
67500;SDS011;54349;52.528;19.760;2022-10-22T13:23:31;12.00;;;7.40;;
67500;SDS011;54349;52.528;19.760;2022-10-22T13:26:13;10.70;;;6.90;;
67500;SDS011;54349;52.528;19.760;2022-10-22T13:28:51;13.20;;;7.50;;
67500;SDS011;54349;52.528;19.760;2022-10-22T13:31:29;12.20;;;7.40;;
67500;SDS011;54349;52.528;19.760;2022-10-22T13:34:05;13.30;;;7.60;;
67500;SDS011;54349;52.528;19.760;2022-10-22T13:36:40;11.60;;;7.10;;
67500;SDS011;54349;52.528;19.760;2022-10-22T13:39:16;10.80;;;7.00;;
67500;SDS011;54349;52.528;19.760;2022-10-22T13:41:46;14.60;;;7.60;;
67500;SDS011;54349;52.528;19.760;2022-10-22T13:44:17;10.90;;;7.20;;
67500;SDS011;54349;52.528;19.760;2022-10-22T13:46:47;10.40;;;6.90;;
67500;SDS011;54349;52.528;19.760;2022-10-22T13:49:18;12.50;;;7.70;;
67500;SDS011;54349;52.528;19.760;2022-10-22T13:51:49;11.50;;;6.80;;
67500;SDS011;54349;52.528;19.760;2022-10-22T13:54:20;13.10;;;7.50;;
67500;SDS011;54349;52.528;19.760;2022-10-22T13:56:50;11.00;;;7.20;;
67500;SDS011;54349;52.528;19.760;2022-10-22T13:59:20;9.70;;;7.10;;
67500;SDS011;54349;52.528;19.760;2022-10-22T14:01:51;11.20;;;7.60;;
67500;SDS011;54349;52.528;19.760;2022-10-22T14:04:19;11.50;;;7.00;;
67500;SDS011;54349;52.528;19.760;2022-10-22T14:06:47;11.30;;;7.00;;
67500;SDS011;54349;52.528;19.760;2022-10-22T14:09:20;10.60;;;6.40;;
67500;SDS011;54349;52.528;19.760;2022-10-22T14:11:48;11.40;;;6.90;;
67500;SDS011;54349;52.528;19.760;2022-10-22T14:14:16;12.10;;;7.30;;
67500;SDS011;54349;52.528;19.760;2022-10-22T14:16:45;11.10;;;6.60;;
67500;SDS011;54349;52.528;19.760;2022-10-22T14:19:15;11.80;;;7.20;;
67500;SDS011;54349;52.528;19.760;2022-10-22T14:21:45;10.60;;;7.10;;
67500;SDS011;54349;52.528;19.760;2022-10-22T14:24:15;9.80;;;6.90;;
67500;SDS011;54349;52.528;19.760;2022-10-22T14:26:45;10.20;;;6.90;;
67500;SDS011;54349;52.528;19.760;2022-10-22T14:29:13;10.40;;;6.90;;
67500;SDS011;54349;52.528;19.760;2022-10-22T14:31:42;11.20;;;7.30;;
67500;SDS011;54349;52.528;19.760;2022-10-22T14:34:13;11.10;;;6.80;;
67500;SDS011;54349;52.528;19.760;2022-10-22T14:36:43;9.50;;;6.50;;
67500;SDS011;54349;52.528;19.760;2022-10-22T14:39:12;11.20;;;7.00;;
67500;SDS011;54349;52.528;19.760;2022-10-22T14:41:41;11.40;;;7.20;;
67500;SDS011;54349;52.528;19.760;2022-10-22T14:44:11;10.30;;;6.70;;
67500;SDS011;54349;52.528;19.760;2022-10-22T14:46:42;10.10;;;6.80;;
67500;SDS011;54349;52.528;19.760;2022-10-22T14:49:11;8.80;;;6.00;;
67500;SDS011;54349;52.528;19.760;2022-10-22T14:51:40;9.70;;;6.40;;
67500;SDS011;54349;52.528;19.760;2022-10-22T14:54:09;9.00;;;5.80;;
67500;SDS011;54349;52.528;19.760;2022-10-22T14:56:37;8.50;;;6.10;;
67500;SDS011;54349;52.528;19.760;2022-10-22T14:59:05;10.70;;;6.30;;
67500;SDS011;54349;52.528;19.760;2022-10-22T15:01:34;8.70;;;6.10;;
67500;SDS011;54349;52.528;19.760;2022-10-22T15:04:02;9.40;;;6.10;;
67500;SDS011;54349;52.528;19.760;2022-10-22T15:06:30;8.60;;;5.50;;
67500;SDS011;54349;52.528;19.760;2022-10-22T15:08:59;9.60;;;6.10;;
67500;SDS011;54349;52.528;19.760;2022-10-22T15:11:27;10.20;;;6.00;;
67500;SDS011;54349;52.528;19.760;2022-10-22T15:13:55;8.30;;;5.80;;
67500;SDS011;54349;52.528;19.760;2022-10-22T15:16:24;9.60;;;5.70;;
67500;SDS011;54349;52.528;19.760;2022-10-22T15:18:53;9.70;;;5.80;;
67500;SDS011;54349;52.528;19.760;2022-10-22T15:21:22;8.90;;;5.60;;
67500;SDS011;54349;52.528;19.760;2022-10-22T15:23:50;8.70;;;5.50;;
67500;SDS011;54349;52.528;19.760;2022-10-22T15:26:18;9.00;;;5.40;;
67500;SDS011;54349;52.528;19.760;2022-10-22T15:28:46;8.70;;;5.40;;
67500;SDS011;54349;52.528;19.760;2022-10-22T15:31:14;8.10;;;5.30;;
67500;SDS011;54349;52.528;19.760;2022-10-22T15:33:43;8.40;;;5.50;;
67500;SDS011;54349;52.528;19.760;2022-10-22T15:36:14;8.20;;;5.20;;
67500;SDS011;54349;52.528;19.760;2022-10-22T15:38:43;7.80;;;5.30;;
67500;SDS011;54349;52.528;19.760;2022-10-22T15:41:11;7.50;;;5.00;;
67500;SDS011;54349;52.528;19.760;2022-10-22T15:43:40;7.50;;;5.10;;
67500;SDS011;54349;52.528;19.760;2022-10-22T15:46:16;8.00;;;5.10;;
67500;SDS011;54349;52.528;19.760;2022-10-22T15:48:45;8.30;;;5.30;;
67500;SDS011;54349;52.528;19.760;2022-10-22T15:51:16;11.30;;;5.30;;
67500;SDS011;54349;52.528;19.760;2022-10-22T15:53:54;10.90;;;6.10;;
67500;SDS011;54349;52.528;19.760;2022-10-22T15:56:27;14.10;;;6.80;;
67500;SDS011;54349;52.528;19.760;2022-10-22T15:59:00;16.40;;;7.50;;
67500;SDS011;54349;52.528;19.760;2022-10-22T16:01:32;16.00;;;7.60;;
67500;SDS011;54349;52.528;19.760;2022-10-22T16:04:00;25.30;;;9.00;;
67500;SDS011;54349;52.528;19.760;2022-10-22T16:06:30;22.50;;;9.10;;
67500;SDS011;54349;52.528;19.760;2022-10-22T16:09:05;19.00;;;9.50;;
67500;SDS011;54349;52.528;19.760;2022-10-22T16:11:44;22.10;;;9.20;;
67500;SDS011;54349;52.528;19.760;2022-10-22T16:14:14;21.60;;;9.40;;
67500;SDS011;54349;52.528;19.760;2022-10-22T16:16:45;22.20;;;9.20;;
67500;SDS011;54349;52.528;19.760;2022-10-22T16:19:19;18.40;;;9.20;;
67500;SDS011;54349;52.528;19.760;2022-10-22T16:21:49;23.20;;;9.20;;
67500;SDS011;54349;52.528;19.760;2022-10-22T16:24:20;22.40;;;9.80;;
67500;SDS011;54349;52.528;19.760;2022-10-22T16:26:49;23.70;;;9.30;;
67500;SDS011;54349;52.528;19.760;2022-10-22T16:29:20;21.60;;;9.30;;
67500;SDS011;54349;52.528;19.760;2022-10-22T16:31:49;21.60;;;9.90;;
67500;SDS011;54349;52.528;19.760;2022-10-22T16:34:17;17.00;;;8.40;;
67500;SDS011;54349;52.528;19.760;2022-10-22T16:36:44;17.90;;;8.40;;
67500;SDS011;54349;52.528;19.760;2022-10-22T16:39:13;20.00;;;9.10;;
67500;SDS011;54349;52.528;19.760;2022-10-22T16:41:41;18.60;;;8.90;;
67500;SDS011;54349;52.528;19.760;2022-10-22T16:44:09;15.80;;;8.60;;
67500;SDS011;54349;52.528;19.760;2022-10-22T16:46:40;18.80;;;8.80;;
67500;SDS011;54349;52.528;19.760;2022-10-22T16:49:11;18.90;;;9.00;;
67500;SDS011;54349;52.528;19.760;2022-10-22T16:51:39;19.30;;;9.50;;
67500;SDS011;54349;52.528;19.760;2022-10-22T16:54:10;21.20;;;8.50;;
67500;SDS011;54349;52.528;19.760;2022-10-22T16:56:40;16.40;;;8.40;;
67500;SDS011;54349;52.528;19.760;2022-10-22T16:59:08;17.20;;;8.50;;
67500;SDS011;54349;52.528;19.760;2022-10-22T17:01:36;15.40;;;7.90;;